ProRodeoTv.Com
Red

PRCA Stock Statistics

SEARCH BY:
Stock Rodeo Contestant Stock Contractor

Casey Breuer

EVENT:
Unofficial results reflect placement at time of Web posting and can change.

SEASON BREAKDOWN

Season Attempts Qual Rides Re-rides Ride %
2017 70 68 0 97.14 %
2016 91 89 0 97.80 %
2015 91 86 0 94.51 %
2014 89 84 0 94.38 %
2013 68 60 0 88.24 %
2012 43 40 0 93.02 %
Totals 452 427 0 0.00 %

RODEO DETAIL

Date Location Rodeo SC Brand Ride Comments Stock Score Contestant Score
8/17/2017 Billings, MT Yellowstone River Round-Up SA 46 81.00 18.00 / 20.00 21.00 / 22.00
8/16/2017 Caldwell, ID Caldwell Night Rodeo BH 946 81.00 19.00 / 19.00 23.00 / 20.00
8/13/2017 Sioux Falls, SD Sioux Empire Fair Rodeo KR 821 86.00 22.00 / 21.00 20.00 / 23.00
8/12/2017 Lawton, OK Lawton Rangers Rodeo BU 663 77.50 19.50 / 21.00 18.00 / 19.00
8/10/2017 Crossett, AR Crossett Riding Club 68th Annual PRCA Rodeo UP 69 76.00 17.00 / 19.00 21.00 / 19.00
8/9/2017 Sikeston, MO Sikeston Jaycee Bootheel Rodeo SS 65 77.00 20.00 / 20.00 20.00 / 17.00
8/5/2017 Sidney, IA Iowa s Championship Rodeo CC U53 82.00 20.00 / 19.00 22.00 / 21.00
8/4/2017 Great Falls, MT Big Sky ProRodeo Roundup SA 236 76.50 18.00 / 19.00 20.50 / 19.00
8/3/2017 Sidney, MT Richland County Fair & Rodeo BR B30 85.00 21.00 / 21.00 21.00 / 22.00
8/2/2017 Glasgow, MT Northeast Montana Fair & Rodeo JB J02+ 83.00 22.00 / 21.00 21.00 / 19.00
7/29/2017 Deadwood, SD Deadwood Days Of 76 Rodeo SU 253 85.00 20.50 / 21.00 22.50 / 21.00
7/28/2017 Burwell, NE Nebraska s Big Rodeo BU 837 85.00 21.00 / 23.00 22.00 / 19.00
7/26/2017 Cheyenne, WY Cheyenne Frontier Days NS 112 0.00 21.50 / 21.50 0.00 / 0.00
7/25/2017 Cheyenne, WY Cheyenne Frontier Days TH K2 79.00 18.00 / 19.00 21.00 / 21.00
7/24/2017 Ogden, UT Ogden Pioneer Days KR 716 78.50 21.00 / 21.00 21.50 / 15.00
7/23/2017 Salinas, CA California Rodeo Salinas CH 908 73.50 17.00 / 18.00 20.50 / 18.00
7/21/2017 Salinas, CA California Rodeo Salinas WR 806 76.50 19.00 / 21.50 19.00 / 17.00
7/19/2017 Nampa, ID Snake River Stampede DB 007 71.00 18.00 / 19.00 18.00 / 16.00
7/16/2017 Mitchell, SD Corn Palace Stampede Rodeo SU 201 84.00 20.00 / 19.00 22.00 / 23.00
7/14/2017 Laramie, WY Laramie Jubilee Days SM 803 82.00 22.00 / 22.00 20.00 / 18.00
7/13/2017 Sheridan, WY Sheridan WYO Rodeo SA 835 83.50 20.00 / 20.00 22.50 / 21.00
7/12/2017 Casper, WY Central Wyoming Fair & Rodeo CB U79 76.50 17.00 / 17.00 20.50 / 22.00
7/9/2017 Estes Park, CO Rooftop Rodeo CC S68 76.50 18.50 / 18.00 21.00 / 19.00
7/8/2017 Hamel, MN Hamel Rodeo & Bull Ridin Bonanza JB 164 75.50 19.00 / 14.00 22.50 / 20.00
7/7/2017 Spooner, WI Heart Of The North Rodeo BA 5I0 78.50 19.50 / 20.00 20.00 / 19.00
Page of 3
Per Page
 
 
 
Copyright © 2017 Professional Rodeo Cowboys Association. All rights reserved. No portion of ProRodeo.com may be duplicated, redistributed or manipulated in any form. By accessing any information beyond this page, you agree to abide by the Terms of Use.
PRCA Wrangler National Finals Rodeo Wrangler Champions Challenge Justin Boots Playoffs Xtreme Bulls RAM National Circuit Finals Rodeo ProRodeo Gear